createdAt,value
2022-12-15T00:06:51.409Z,-5.00
2022-12-15T00:14:10.481Z,-5.00
2022-12-15T00:21:29.461Z,-5.10
2022-12-15T00:28:48.395Z,-5.10
2022-12-15T00:36:07.340Z,-5.30
2022-12-15T00:43:11.839Z,-5.40
2022-12-15T00:50:31.087Z,-5.50
2022-12-15T00:57:50.326Z,-5.60
2022-12-15T01:05:09.965Z,-5.70
2022-12-15T01:12:29.205Z,-5.80
2022-12-15T01:19:48.532Z,-5.80
2022-12-15T01:26:50.312Z,-5.90
2022-12-15T01:33:54.623Z,-5.90
2022-12-15T01:41:03.064Z,-6.00
2022-12-15T01:48:07.537Z,-6.00
2022-12-15T01:55:08.825Z,-6.00
2022-12-15T02:02:10.395Z,-5.90
2022-12-15T02:09:11.067Z,-5.80
2022-12-15T02:16:22.735Z,-5.70
2022-12-15T02:23:53.961Z,-5.60
2022-12-15T02:31:22.293Z,-5.50
2022-12-15T02:38:38.313Z,-5.40
2022-12-15T02:46:01.413Z,-5.40
2022-12-15T02:53:23.005Z,-5.30
2022-12-15T03:00:23.051Z,-5.30
2022-12-15T03:07:27.647Z,-5.30
2022-12-15T03:14:28.083Z,-5.30
2022-12-15T03:21:28.861Z,-5.20
2022-12-15T03:28:28.966Z,-5.20
2022-12-15T03:35:30.594Z,-5.10
2022-12-15T03:42:49.037Z,-5.10
2022-12-15T03:49:49.376Z,-5.20
2022-12-15T03:56:50.071Z,-5.10
2022-12-15T04:03:50.693Z,-5.10
2022-12-15T04:10:52.734Z,-5.10
2022-12-15T04:17:53.837Z,-5.10
2022-12-15T04:25:12.787Z,-5.20
2022-12-15T04:32:31.945Z,-5.20
2022-12-15T04:39:52.506Z,-5.20
2022-12-15T04:47:11.875Z,-5.20
2022-12-15T04:54:30.895Z,-5.10
2022-12-15T05:01:50.833Z,-5.10
2022-12-15T05:09:09.964Z,-5.10
2022-12-15T05:16:29.373Z,-5.20
2022-12-15T05:23:48.425Z,-5.20
2022-12-15T05:31:09.465Z,-5.20
2022-12-15T05:38:10.189Z,-5.20
2022-12-15T05:45:10.883Z,-5.30
2022-12-15T05:52:11.477Z,-5.30
2022-12-15T05:59:12.094Z,-5.30
2022-12-15T06:06:13.108Z,-5.40
2022-12-15T06:13:13.320Z,-5.40
2022-12-15T06:20:13.771Z,-5.40
2022-12-15T06:27:14.517Z,-5.40
2022-12-15T06:34:16.998Z,-5.40
2022-12-15T06:41:20.187Z,-5.50
2022-12-15T06:48:21.258Z,-5.50
2022-12-15T06:55:21.420Z,-5.50
2022-12-15T07:02:27.018Z,-5.50
2022-12-15T07:09:29.376Z,-5.60
2022-12-15T07:16:31.068Z,-5.60
2022-12-15T07:23:53.585Z,-5.60
2022-12-15T07:30:52.617Z,-5.30
2022-12-15T07:37:53.231Z,-5.20
2022-12-15T07:44:53.605Z,-5.10
2022-12-15T07:51:58.269Z,-5.00
2022-12-15T07:58:59.576Z,-4.90
2022-12-15T08:06:06.678Z,-4.80
2022-12-15T08:13:07.276Z,-4.70
2022-12-15T08:20:10.130Z,-4.60
2022-12-15T08:27:10.745Z,-4.50
2022-12-15T08:34:11.136Z,-4.30
2022-12-15T08:41:26.984Z,-4.20
2022-12-15T08:48:27.143Z,-4.20
2022-12-15T08:55:27.610Z,-4.10
2022-12-15T09:02:28.009Z,-4.10
2022-12-15T09:09:28.544Z,-4.00
2022-12-15T09:16:29.666Z,-4.00
2022-12-15T09:23:30.800Z,-4.00
2022-12-15T09:30:31.727Z,-3.80
2022-12-15T09:37:32.430Z,-3.80
2022-12-15T09:44:33.258Z,-3.80
2022-12-15T09:51:39.241Z,-3.70
2022-12-15T09:59:05.448Z,-3.60
2022-12-15T10:06:16.645Z,-3.50
2022-12-15T10:13:23.387Z,-3.40
2022-12-15T10:20:26.274Z,-3.30
2022-12-15T10:27:55.980Z,-3.30
2022-12-15T10:34:56.262Z,-3.20
2022-12-15T10:42:14.913Z,-3.30
2022-12-15T10:49:15.048Z,-3.30
2022-12-15T10:56:20.723Z,-3.20
2022-12-15T11:03:26.437Z,-3.10
2022-12-15T11:10:50.679Z,-3.00
2022-12-15T11:18:03.550Z,-2.90
2022-12-15T11:25:29.157Z,-2.80
2022-12-15T11:32:33.991Z,-2.80
2022-12-15T11:39:52.168Z,-2.70
2022-12-15T11:47:11.210Z,-2.60
2022-12-15T11:54:33.445Z,-2.50
2022-12-15T12:02:02.380Z,-2.30
2022-12-15T12:09:24.917Z,-2.30
2022-12-15T12:16:46.955Z,-2.40
2022-12-15T12:24:00.342Z,-2.40
2022-12-15T12:31:03.329Z,-2.40
2022-12-15T12:38:05.596Z,-2.30
2022-12-15T12:45:06.377Z,-2.20
2022-12-15T12:52:26.417Z,-2.10
2022-12-15T12:59:29.753Z,-2.00
2022-12-15T13:06:36.254Z,-1.90
2022-12-15T13:13:46.467Z,-1.80
2022-12-15T13:20:55.201Z,-1.70
2022-12-15T13:28:00.676Z,-1.60
2022-12-15T13:35:21.168Z,-1.50
2022-12-15T13:42:37.018Z,-1.40
2022-12-15T13:50:04.249Z,-1.30
2022-12-15T13:57:09.760Z,-1.20
2022-12-15T14:04:16.700Z,-1.10
2022-12-15T14:11:51.180Z,-0.90
2022-12-15T14:18:44.566Z,-0.80
2022-12-15T14:26:05.973Z,-0.80
2022-12-15T14:33:15.947Z,-0.70
2022-12-15T14:40:17.963Z,-0.70
2022-12-15T14:47:21.310Z,-0.60
2022-12-15T14:54:29.948Z,-0.80
2022-12-15T15:01:33.182Z,-0.90
2022-12-15T15:08:41.629Z,-1.00
2022-12-15T15:15:41.934Z,-1.10
2022-12-15T15:22:45.284Z,-1.30
2022-12-15T15:29:46.214Z,-1.40
2022-12-15T15:36:46.340Z,-1.50
2022-12-15T15:43:47.361Z,-1.60
2022-12-15T15:50:47.952Z,-1.80
2022-12-15T15:57:48.285Z,-2.00
2022-12-15T16:04:48.602Z,-2.10
2022-12-15T16:11:49.219Z,-2.20
2022-12-15T16:18:50.173Z,-2.30
2022-12-15T16:25:57.066Z,-2.40
2022-12-15T16:32:57.836Z,-2.50
2022-12-15T16:39:58.461Z,-2.60
2022-12-15T16:46:59.818Z,-2.70
2022-12-15T16:54:00.618Z,-2.70
2022-12-15T17:01:01.476Z,-2.80
2022-12-15T17:08:05.569Z,-2.90
2022-12-15T17:15:24.207Z,-3.00
2022-12-15T17:22:26.109Z,-3.00
2022-12-15T17:29:26.694Z,-3.20
2022-12-15T17:36:28.112Z,-3.20
2022-12-15T17:43:35.175Z,-3.30
2022-12-15T17:50:37.081Z,-3.40
2022-12-15T17:57:37.477Z,-3.50
2022-12-15T18:04:37.901Z,-3.60
2022-12-15T18:11:38.376Z,-3.70
2022-12-15T18:18:38.815Z,-3.80
2022-12-15T18:25:40.059Z,-3.90
2022-12-15T18:32:42.035Z,-3.90
2022-12-15T18:39:42.372Z,-4.00
2022-12-15T18:46:47.737Z,-4.10
2022-12-15T18:53:49.122Z,-4.20
2022-12-15T19:00:49.661Z,-4.40
2022-12-15T19:07:50.133Z,-4.40
2022-12-15T19:14:52.165Z,-4.40
2022-12-15T19:22:11.128Z,-4.40
2022-12-15T19:29:19.962Z,-4.50
2022-12-15T19:36:23.700Z,-4.50
2022-12-15T19:43:24.427Z,-4.60
2022-12-15T19:50:30.984Z,-4.70
2022-12-15T19:57:31.543Z,-4.80
2022-12-15T20:04:33.848Z,-4.80
2022-12-15T20:11:34.359Z,-4.90
2022-12-15T20:18:34.720Z,-4.90
2022-12-15T20:25:37.532Z,-4.90
2022-12-15T20:32:38.598Z,-5.00
2022-12-15T20:39:40.101Z,-5.10
2022-12-15T20:46:40.699Z,-5.20
2022-12-15T20:53:41.221Z,-5.20
2022-12-15T21:00:41.758Z,-5.20
2022-12-15T21:07:42.311Z,-5.30
2022-12-15T21:14:43.155Z,-5.40
2022-12-15T21:21:49.151Z,-5.50
2022-12-15T21:28:57.304Z,-5.60
2022-12-15T21:35:58.873Z,-5.70
2022-12-15T21:42:59.047Z,-5.80
2022-12-15T21:50:01.403Z,-5.90
2022-12-15T21:57:02.641Z,-5.90
2022-12-15T22:04:07.345Z,-6.00
2022-12-15T22:11:20.433Z,-6.10
2022-12-15T22:18:22.299Z,-6.20
2022-12-15T22:25:24.865Z,-6.20
2022-12-15T22:32:25.129Z,-6.30
2022-12-15T22:39:25.600Z,-6.30
2022-12-15T22:46:26.204Z,-6.30
2022-12-15T22:53:30.097Z,-6.30
2022-12-15T23:00:30.483Z,-6.30
2022-12-15T23:07:31.180Z,-6.30
2022-12-15T23:14:50.441Z,-6.30
2022-12-15T23:21:52.164Z,-6.30
2022-12-15T23:28:53.396Z,-6.40
2022-12-15T23:35:58.591Z,-6.40
2022-12-15T23:42:59.200Z,-6.40
2022-12-15T23:49:59.672Z,-6.40
2022-12-15T23:57:00.027Z,-6.40
